sensor_id;sensor_type;location;lat;lon;timestamp;P1;durP1;ratioP1;P2;durP2;ratioP2
74624;SDS011;63131;52.298;8.056;2022-12-07T00:00:48;14.57;;;7.53;;
74624;SDS011;63131;52.298;8.056;2022-12-07T00:03:13;18.88;;;9.40;;
74624;SDS011;63131;52.298;8.056;2022-12-07T00:05:38;16.02;;;7.63;;
74624;SDS011;63131;52.298;8.056;2022-12-07T00:08:04;15.90;;;8.48;;
74624;SDS011;63131;52.298;8.056;2022-12-07T00:10:29;18.08;;;8.77;;
74624;SDS011;63131;52.298;8.056;2022-12-07T00:12:54;17.23;;;7.90;;
74624;SDS011;63131;52.298;8.056;2022-12-07T00:15:20;17.65;;;8.35;;
74624;SDS011;63131;52.298;8.056;2022-12-07T00:17:45;15.75;;;7.45;;
74624;SDS011;63131;52.298;8.056;2022-12-07T00:20:10;15.30;;;7.40;;
74624;SDS011;63131;52.298;8.056;2022-12-07T00:22:36;16.08;;;7.38;;
74624;SDS011;63131;52.298;8.056;2022-12-07T00:25:01;15.05;;;6.50;;
74624;SDS011;63131;52.298;8.056;2022-12-07T00:27:26;16.02;;;7.57;;
74624;SDS011;63131;52.298;8.056;2022-12-07T00:29:52;32.03;;;7.07;;
74624;SDS011;63131;52.298;8.056;2022-12-07T00:32:17;16.10;;;6.75;;
74624;SDS011;63131;52.298;8.056;2022-12-07T00:34:42;13.82;;;5.93;;
74624;SDS011;63131;52.298;8.056;2022-12-07T00:37:08;16.00;;;6.30;;
74624;SDS011;63131;52.298;8.056;2022-12-07T00:39:33;15.57;;;6.57;;
74624;SDS011;63131;52.298;8.056;2022-12-07T00:41:58;14.88;;;6.60;;
74624;SDS011;63131;52.298;8.056;2022-12-07T00:44:24;14.82;;;5.93;;
74624;SDS011;63131;52.298;8.056;2022-12-07T00:46:49;14.45;;;6.80;;
74624;SDS011;63131;52.298;8.056;2022-12-07T00:49:14;18.80;;;6.97;;
74624;SDS011;63131;52.298;8.056;2022-12-07T00:51:40;15.38;;;7.43;;
74624;SDS011;63131;52.298;8.056;2022-12-07T00:54:05;15.55;;;6.75;;
74624;SDS011;63131;52.298;8.056;2022-12-07T00:56:30;15.50;;;5.93;;
74624;SDS011;63131;52.298;8.056;2022-12-07T00:58:57;14.05;;;7.05;;
74624;SDS011;63131;52.298;8.056;2022-12-07T01:01:23;15.90;;;7.07;;
74624;SDS011;63131;52.298;8.056;2022-12-07T01:03:52;16.25;;;7.47;;
74624;SDS011;63131;52.298;8.056;2022-12-07T01:06:18;14.55;;;6.38;;
74624;SDS011;63131;52.298;8.056;2022-12-07T01:08:45;18.27;;;7.90;;
74624;SDS011;63131;52.298;8.056;2022-12-07T01:11:12;13.77;;;6.65;;
74624;SDS011;63131;52.298;8.056;2022-12-07T01:13:40;16.65;;;6.88;;
74624;SDS011;63131;52.298;8.056;2022-12-07T01:16:05;14.38;;;6.15;;
74624;SDS011;63131;52.298;8.056;2022-12-07T01:18:32;12.95;;;5.82;;
74624;SDS011;63131;52.298;8.056;2022-12-07T01:21:00;14.35;;;6.05;;
74624;SDS011;63131;52.298;8.056;2022-12-07T01:23:30;13.35;;;5.85;;
74624;SDS011;63131;52.298;8.056;2022-12-07T01:25:56;15.93;;;6.55;;
74624;SDS011;63131;52.298;8.056;2022-12-07T01:28:26;14.05;;;5.20;;
74624;SDS011;63131;52.298;8.056;2022-12-07T01:30:56;12.27;;;5.40;;
74624;SDS011;63131;52.298;8.056;2022-12-07T01:33:21;12.75;;;5.60;;
74624;SDS011;63131;52.298;8.056;2022-12-07T01:35:46;11.52;;;5.05;;
74624;SDS011;63131;52.298;8.056;2022-12-07T01:38:12;12.00;;;5.32;;
74624;SDS011;63131;52.298;8.056;2022-12-07T01:40:37;13.07;;;5.47;;
74624;SDS011;63131;52.298;8.056;2022-12-07T01:43:04;11.07;;;4.20;;
74624;SDS011;63131;52.298;8.056;2022-12-07T01:45:38;10.10;;;4.55;;
74624;SDS011;63131;52.298;8.056;2022-12-07T01:48:04;11.90;;;5.18;;
74624;SDS011;63131;52.298;8.056;2022-12-07T01:50:30;10.82;;;4.82;;
74624;SDS011;63131;52.298;8.056;2022-12-07T01:52:56;12.65;;;4.57;;
74624;SDS011;63131;52.298;8.056;2022-12-07T01:55:23;14.13;;;4.60;;
74624;SDS011;63131;52.298;8.056;2022-12-07T01:57:49;10.70;;;4.82;;
74624;SDS011;63131;52.298;8.056;2022-12-07T02:00:17;9.93;;;4.30;;
74624;SDS011;63131;52.298;8.056;2022-12-07T02:02:44;10.88;;;4.32;;
74624;SDS011;63131;52.298;8.056;2022-12-07T02:05:12;9.32;;;3.97;;
74624;SDS011;63131;52.298;8.056;2022-12-07T02:07:38;11.15;;;4.80;;
74624;SDS011;63131;52.298;8.056;2022-12-07T02:10:13;9.95;;;4.40;;
74624;SDS011;63131;52.298;8.056;2022-12-07T02:13:03;9.82;;;3.97;;
74624;SDS011;63131;52.298;8.056;2022-12-07T02:29:22;8.68;;;3.83;;
74624;SDS011;63131;52.298;8.056;2022-12-07T02:37:35;8.38;;;3.15;;
74624;SDS011;63131;52.298;8.056;2022-12-07T02:42:54;9.98;;;2.70;;
74624;SDS011;63131;52.298;8.056;2022-12-07T02:45:29;8.18;;;2.63;;
74624;SDS011;63131;52.298;8.056;2022-12-07T02:50:21;6.90;;;2.22;;
74624;SDS011;63131;52.298;8.056;2022-12-07T02:52:47;7.38;;;2.65;;
74624;SDS011;63131;52.298;8.056;2022-12-07T02:55:12;9.25;;;2.97;;
74624;SDS011;63131;52.298;8.056;2022-12-07T02:57:44;6.78;;;2.60;;
74624;SDS011;63131;52.298;8.056;2022-12-07T03:00:23;7.32;;;2.22;;
74624;SDS011;63131;52.298;8.056;2022-12-07T03:02:58;7.15;;;2.25;;
74624;SDS011;63131;52.298;8.056;2022-12-07T03:13:55;7.53;;;1.98;;
74624;SDS011;63131;52.298;8.056;2022-12-07T03:18:50;9.82;;;2.33;;
74624;SDS011;63131;52.298;8.056;2022-12-07T03:21:18;6.55;;;2.50;;
74624;SDS011;63131;52.298;8.056;2022-12-07T03:23:47;7.95;;;2.00;;
74624;SDS011;63131;52.298;8.056;2022-12-07T03:26:16;6.80;;;2.00;;
74624;SDS011;63131;52.298;8.056;2022-12-07T03:28:44;5.93;;;2.13;;
74624;SDS011;63131;52.298;8.056;2022-12-07T03:31:16;6.45;;;1.88;;
74624;SDS011;63131;52.298;8.056;2022-12-07T03:33:49;6.93;;;1.73;;
74624;SDS011;63131;52.298;8.056;2022-12-07T03:36:34;7.05;;;2.20;;
74624;SDS011;63131;52.298;8.056;2022-12-07T03:39:14;6.82;;;1.95;;
74624;SDS011;63131;52.298;8.056;2022-12-07T03:41:46;5.28;;;1.63;;
74624;SDS011;63131;52.298;8.056;2022-12-07T03:44:12;8.02;;;1.85;;
74624;SDS011;63131;52.298;8.056;2022-12-07T03:49:21;5.40;;;1.50;;
74624;SDS011;63131;52.298;8.056;2022-12-07T03:55:15;5.68;;;1.77;;
74624;SDS011;63131;52.298;8.056;2022-12-07T03:57:46;7.75;;;2.20;;
74624;SDS011;63131;52.298;8.056;2022-12-07T04:00:14;8.02;;;1.75;;
74624;SDS011;63131;52.298;8.056;2022-12-07T04:02:39;6.35;;;1.73;;
74624;SDS011;63131;52.298;8.056;2022-12-07T04:05:06;9.25;;;1.80;;
74624;SDS011;63131;52.298;8.056;2022-12-07T04:07:32;6.18;;;1.85;;
74624;SDS011;63131;52.298;8.056;2022-12-07T04:09:57;7.63;;;1.52;;
74624;SDS011;63131;52.298;8.056;2022-12-07T04:12:23;5.70;;;1.58;;
74624;SDS011;63131;52.298;8.056;2022-12-07T04:14:48;6.35;;;1.90;;
74624;SDS011;63131;52.298;8.056;2022-12-07T04:17:14;6.50;;;2.15;;
74624;SDS011;63131;52.298;8.056;2022-12-07T04:19:39;9.13;;;1.95;;
74624;SDS011;63131;52.298;8.056;2022-12-07T04:22:05;8.15;;;2.25;;
74624;SDS011;63131;52.298;8.056;2022-12-07T04:24:30;6.22;;;1.80;;
74624;SDS011;63131;52.298;8.056;2022-12-07T04:26:56;3.95;;;1.40;;
74624;SDS011;63131;52.298;8.056;2022-12-07T04:29:21;8.77;;;1.73;;
74624;SDS011;63131;52.298;8.056;2022-12-07T04:31:47;5.85;;;1.65;;
74624;SDS011;63131;52.298;8.056;2022-12-07T04:34:13;6.07;;;1.35;;
74624;SDS011;63131;52.298;8.056;2022-12-07T04:36:39;7.68;;;1.80;;
74624;SDS011;63131;52.298;8.056;2022-12-07T04:39:05;7.75;;;1.55;;
74624;SDS011;63131;52.298;8.056;2022-12-07T04:41:32;8.70;;;1.75;;
74624;SDS011;63131;52.298;8.056;2022-12-07T04:44:00;9.13;;;1.52;;
74624;SDS011;63131;52.298;8.056;2022-12-07T04:46:26;7.57;;;1.67;;
74624;SDS011;63131;52.298;8.056;2022-12-07T04:48:53;6.32;;;1.90;;
74624;SDS011;63131;52.298;8.056;2022-12-07T04:51:21;6.00;;;1.83;;
74624;SDS011;63131;52.298;8.056;2022-12-07T04:53:48;5.55;;;1.50;;
74624;SDS011;63131;52.298;8.056;2022-12-07T04:56:14;4.38;;;1.10;;
74624;SDS011;63131;52.298;8.056;2022-12-07T04:58:40;5.10;;;1.40;;
74624;SDS011;63131;52.298;8.056;2022-12-07T05:01:06;3.97;;;1.40;;
74624;SDS011;63131;52.298;8.056;2022-12-07T05:03:31;6.28;;;1.85;;
74624;SDS011;63131;52.298;8.056;2022-12-07T05:05:56;4.35;;;1.02;;
74624;SDS011;63131;52.298;8.056;2022-12-07T05:08:22;6.63;;;1.73;;
74624;SDS011;63131;52.298;8.056;2022-12-07T05:10:48;4.95;;;1.25;;
74624;SDS011;63131;52.298;8.056;2022-12-07T05:13:14;8.07;;;1.52;;
74624;SDS011;63131;52.298;8.056;2022-12-07T05:15:39;6.03;;;1.38;;
74624;SDS011;63131;52.298;8.056;2022-12-07T05:18:05;6.70;;;1.38;;
74624;SDS011;63131;52.298;8.056;2022-12-07T05:20:30;5.50;;;1.42;;
74624;SDS011;63131;52.298;8.056;2022-12-07T05:22:56;6.72;;;1.60;;
74624;SDS011;63131;52.298;8.056;2022-12-07T05:25:23;8.13;;;1.90;;
74624;SDS011;63131;52.298;8.056;2022-12-07T05:27:48;4.53;;;1.23;;
74624;SDS011;63131;52.298;8.056;2022-12-07T05:30:14;8.90;;;1.63;;
74624;SDS011;63131;52.298;8.056;2022-12-07T05:32:39;5.28;;;1.30;;
74624;SDS011;63131;52.298;8.056;2022-12-07T05:35:05;5.93;;;1.40;;
74624;SDS011;63131;52.298;8.056;2022-12-07T05:37:30;4.85;;;1.55;;
74624;SDS011;63131;52.298;8.056;2022-12-07T05:39:56;8.00;;;1.80;;
74624;SDS011;63131;52.298;8.056;2022-12-07T05:42:21;5.28;;;1.73;;
74624;SDS011;63131;52.298;8.056;2022-12-07T05:44:47;6.38;;;2.13;;
74624;SDS011;63131;52.298;8.056;2022-12-07T05:47:13;8.05;;;2.85;;
74624;SDS011;63131;52.298;8.056;2022-12-07T05:49:39;9.05;;;2.10;;
74624;SDS011;63131;52.298;8.056;2022-12-07T05:52:04;6.80;;;1.60;;
74624;SDS011;63131;52.298;8.056;2022-12-07T05:54:30;10.63;;;2.28;;
74624;SDS011;63131;52.298;8.056;2022-12-07T05:56:55;6.10;;;1.55;;
74624;SDS011;63131;52.298;8.056;2022-12-07T05:59:21;4.97;;;1.50;;
74624;SDS011;63131;52.298;8.056;2022-12-07T06:01:56;6.03;;;1.35;;
74624;SDS011;63131;52.298;8.056;2022-12-07T06:04:27;5.10;;;1.50;;
74624;SDS011;63131;52.298;8.056;2022-12-07T06:06:53;6.88;;;1.73;;
74624;SDS011;63131;52.298;8.056;2022-12-07T06:09:19;6.22;;;1.58;;
74624;SDS011;63131;52.298;8.056;2022-12-07T06:11:46;6.90;;;1.75;;
74624;SDS011;63131;52.298;8.056;2022-12-07T06:14:30;9.18;;;1.60;;
74624;SDS011;63131;52.298;8.056;2022-12-07T06:16:55;8.88;;;1.90;;
74624;SDS011;63131;52.298;8.056;2022-12-07T06:19:21;5.68;;;1.48;;
74624;SDS011;63131;52.298;8.056;2022-12-07T06:21:46;6.38;;;1.90;;
74624;SDS011;63131;52.298;8.056;2022-12-07T06:24:12;5.30;;;1.30;;
74624;SDS011;63131;52.298;8.056;2022-12-07T06:29:04;5.82;;;1.55;;
74624;SDS011;63131;52.298;8.056;2022-12-07T06:31:29;11.20;;;1.65;;
74624;SDS011;63131;52.298;8.056;2022-12-07T06:34:01;7.22;;;1.85;;
74624;SDS011;63131;52.298;8.056;2022-12-07T06:36:29;7.63;;;1.90;;
74624;SDS011;63131;52.298;8.056;2022-12-07T06:38:54;5.53;;;1.52;;
74624;SDS011;63131;52.298;8.056;2022-12-07T06:41:20;8.32;;;1.42;;
74624;SDS011;63131;52.298;8.056;2022-12-07T06:43:46;4.15;;;1.40;;
74624;SDS011;63131;52.298;8.056;2022-12-07T06:46:11;6.55;;;1.30;;
74624;SDS011;63131;52.298;8.056;2022-12-07T06:48:37;6.05;;;1.50;;
74624;SDS011;63131;52.298;8.056;2022-12-07T06:51:02;5.55;;;1.55;;
74624;SDS011;63131;52.298;8.056;2022-12-07T06:53:28;7.43;;;1.65;;
74624;SDS011;63131;52.298;8.056;2022-12-07T06:55:53;7.15;;;1.60;;
74624;SDS011;63131;52.298;8.056;2022-12-07T06:58:18;8.38;;;1.63;;
74624;SDS011;63131;52.298;8.056;2022-12-07T07:00:44;8.73;;;1.75;;
74624;SDS011;63131;52.298;8.056;2022-12-07T07:03:10;5.38;;;1.42;;
74624;SDS011;63131;52.298;8.056;2022-12-07T07:05:36;6.40;;;1.50;;
74624;SDS011;63131;52.298;8.056;2022-12-07T07:08:01;5.32;;;1.40;;
74624;SDS011;63131;52.298;8.056;2022-12-07T07:10:27;3.75;;;1.08;;
74624;SDS011;63131;52.298;8.056;2022-12-07T07:12:53;7.13;;;1.60;;
74624;SDS011;63131;52.298;8.056;2022-12-07T07:15:18;4.07;;;1.63;;
74624;SDS011;63131;52.298;8.056;2022-12-07T07:17:43;5.07;;;1.33;;
74624;SDS011;63131;52.298;8.056;2022-12-07T07:20:09;6.38;;;1.67;;
74624;SDS011;63131;52.298;8.056;2022-12-07T07:22:35;5.30;;;1.52;;
74624;SDS011;63131;52.298;8.056;2022-12-07T07:25:00;9.90;;;2.00;;
74624;SDS011;63131;52.298;8.056;2022-12-07T07:27:25;5.90;;;1.88;;
74624;SDS011;63131;52.298;8.056;2022-12-07T07:29:51;7.05;;;1.50;;
74624;SDS011;63131;52.298;8.056;2022-12-07T07:32:16;6.63;;;1.60;;
74624;SDS011;63131;52.298;8.056;2022-12-07T07:34:41;3.90;;;1.30;;
74624;SDS011;63131;52.298;8.056;2022-12-07T07:37:07;4.35;;;1.20;;
74624;SDS011;63131;52.298;8.056;2022-12-07T07:39:32;5.72;;;1.30;;
74624;SDS011;63131;52.298;8.056;2022-12-07T07:41:57;7.78;;;1.75;;
74624;SDS011;63131;52.298;8.056;2022-12-07T07:44:23;5.18;;;1.50;;
74624;SDS011;63131;52.298;8.056;2022-12-07T07:46:48;3.72;;;1.40;;
74624;SDS011;63131;52.298;8.056;2022-12-07T07:49:13;9.63;;;2.40;;
74624;SDS011;63131;52.298;8.056;2022-12-07T07:51:39;9.40;;;1.92;;
74624;SDS011;63131;52.298;8.056;2022-12-07T07:54:04;10.32;;;2.10;;
74624;SDS011;63131;52.298;8.056;2022-12-07T07:56:30;6.07;;;1.90;;
74624;SDS011;63131;52.298;8.056;2022-12-07T07:58:55;6.30;;;1.58;;
74624;SDS011;63131;52.298;8.056;2022-12-07T08:01:21;6.72;;;1.70;;
74624;SDS011;63131;52.298;8.056;2022-12-07T08:03:46;6.90;;;1.60;;
74624;SDS011;63131;52.298;8.056;2022-12-07T08:06:13;4.85;;;1.52;;
74624;SDS011;63131;52.298;8.056;2022-12-07T08:08:38;4.75;;;1.70;;
74624;SDS011;63131;52.298;8.056;2022-12-07T08:11:07;6.78;;;1.70;;
74624;SDS011;63131;52.298;8.056;2022-12-07T08:13:33;9.18;;;2.05;;
74624;SDS011;63131;52.298;8.056;2022-12-07T08:15:58;6.32;;;1.63;;
74624;SDS011;63131;52.298;8.056;2022-12-07T08:18:29;5.07;;;1.73;;
74624;SDS011;63131;52.298;8.056;2022-12-07T08:20:58;6.38;;;1.65;;
74624;SDS011;63131;52.298;8.056;2022-12-07T08:23:25;7.07;;;1.88;;
74624;SDS011;63131;52.298;8.056;2022-12-07T08:25:51;9.40;;;2.35;;
74624;SDS011;63131;52.298;8.056;2022-12-07T08:28:16;6.43;;;1.80;;
74624;SDS011;63131;52.298;8.056;2022-12-07T08:30:41;10.45;;;2.47;;
74624;SDS011;63131;52.298;8.056;2022-12-07T08:33:07;9.10;;;2.33;;
74624;SDS011;63131;52.298;8.056;2022-12-07T08:35:33;4.80;;;1.50;;
74624;SDS011;63131;52.298;8.056;2022-12-07T08:37:59;7.32;;;1.92;;
74624;SDS011;63131;52.298;8.056;2022-12-07T08:40:24;5.88;;;2.00;;
74624;SDS011;63131;52.298;8.056;2022-12-07T08:42:50;7.50;;;1.92;;
74624;SDS011;63131;52.298;8.056;2022-12-07T08:45:16;6.43;;;1.73;;
74624;SDS011;63131;52.298;8.056;2022-12-07T08:47:44;4.30;;;1.60;;
74624;SDS011;63131;52.298;8.056;2022-12-07T08:50:14;7.72;;;2.20;;
74624;SDS011;63131;52.298;8.056;2022-12-07T08:52:40;6.75;;;1.60;;
74624;SDS011;63131;52.298;8.056;2022-12-07T08:55:06;6.55;;;2.03;;
74624;SDS011;63131;52.298;8.056;2022-12-07T08:57:33;7.53;;;2.67;;
74624;SDS011;63131;52.298;8.056;2022-12-07T09:02:25;8.03;;;2.00;;
74624;SDS011;63131;52.298;8.056;2022-12-07T09:04:50;8.80;;;2.15;;
74624;SDS011;63131;52.298;8.056;2022-12-07T09:07:16;7.35;;;1.90;;
74624;SDS011;63131;52.298;8.056;2022-12-07T09:09:41;7.70;;;1.90;;
74624;SDS011;63131;52.298;8.056;2022-12-07T09:12:06;8.70;;;2.00;;
74624;SDS011;63131;52.298;8.056;2022-12-07T09:14:32;6.45;;;2.00;;
74624;SDS011;63131;52.298;8.056;2022-12-07T09:17:07;6.43;;;2.10;;
74624;SDS011;63131;52.298;8.056;2022-12-07T09:19:34;6.43;;;1.92;;
74624;SDS011;63131;52.298;8.056;2022-12-07T09:22:00;8.60;;;2.25;;
74624;SDS011;63131;52.298;8.056;2022-12-07T09:24:25;6.60;;;2.22;;
74624;SDS011;63131;52.298;8.056;2022-12-07T09:26:51;7.57;;;2.58;;
74624;SDS011;63131;52.298;8.056;2022-12-07T09:29:16;6.82;;;2.15;;
74624;SDS011;63131;52.298;8.056;2022-12-07T09:31:41;6.88;;;1.90;;
74624;SDS011;63131;52.298;8.056;2022-12-07T09:34:07;7.90;;;2.25;;
74624;SDS011;63131;52.298;8.056;2022-12-07T09:36:32;7.20;;;2.00;;
74624;SDS011;63131;52.298;8.056;2022-12-07T09:38:58;6.63;;;1.73;;
74624;SDS011;63131;52.298;8.056;2022-12-07T09:41:24;8.63;;;2.72;;
74624;SDS011;63131;52.298;8.056;2022-12-07T09:43:50;8.60;;;2.30;;
74624;SDS011;63131;52.298;8.056;2022-12-07T09:46:16;7.35;;;2.08;;
74624;SDS011;63131;52.298;8.056;2022-12-07T09:48:43;6.85;;;2.08;;
74624;SDS011;63131;52.298;8.056;2022-12-07T09:51:16;8.98;;;2.10;;
74624;SDS011;63131;52.298;8.056;2022-12-07T09:53:43;7.97;;;2.22;;
74624;SDS011;63131;52.298;8.056;2022-12-07T09:56:13;8.80;;;2.45;;
74624;SDS011;63131;52.298;8.056;2022-12-07T09:58:40;10.82;;;3.20;;
74624;SDS011;63131;52.298;8.056;2022-12-07T10:03:37;7.38;;;2.17;;
74624;SDS011;63131;52.298;8.056;2022-12-07T10:06:03;5.28;;;1.63;;
74624;SDS011;63131;52.298;8.056;2022-12-07T10:08:29;6.03;;;1.48;;
74624;SDS011;63131;52.298;8.056;2022-12-07T10:10:55;8.05;;;1.65;;
74624;SDS011;63131;52.298;8.056;2022-12-07T10:13:34;3.47;;;1.20;;
74624;SDS011;63131;52.298;8.056;2022-12-07T10:16:00;7.47;;;1.58;;
74624;SDS011;63131;52.298;8.056;2022-12-07T10:20:59;7.40;;;1.53;;
74624;SDS011;63131;52.298;8.056;2022-12-07T10:23:26;4.85;;;1.17;;
74624;SDS011;63131;52.298;8.056;2022-12-07T10:25:51;7.85;;;1.40;;
74624;SDS011;63131;52.298;8.056;2022-12-07T10:28:19;7.10;;;1.40;;
74624;SDS011;63131;52.298;8.056;2022-12-07T10:30:56;4.03;;;1.15;;
74624;SDS011;63131;52.298;8.056;2022-12-07T10:33:38;7.88;;;1.60;;
74624;SDS011;63131;52.298;8.056;2022-12-07T10:36:26;8.77;;;2.67;;
74624;SDS011;63131;52.298;8.056;2022-12-07T10:39:12;4.10;;;1.02;;
74624;SDS011;63131;52.298;8.056;2022-12-07T10:41:52;3.78;;;0.98;;
74624;SDS011;63131;52.298;8.056;2022-12-07T10:44:21;5.85;;;1.23;;
74624;SDS011;63131;52.298;8.056;2022-12-07T10:47:14;3.17;;;1.30;;
74624;SDS011;63131;52.298;8.056;2022-12-07T10:50:05;4.38;;;1.50;;
74624;SDS011;63131;52.298;8.056;2022-12-07T10:55:11;7.47;;;1.60;;
74624;SDS011;63131;52.298;8.056;2022-12-07T11:01:00;4.72;;;1.30;;
74624;SDS011;63131;52.298;8.056;2022-12-07T11:06:17;4.88;;;1.58;;
74624;SDS011;63131;52.298;8.056;2022-12-07T11:12:00;3.10;;;1.20;;
74624;SDS011;63131;52.298;8.056;2022-12-07T11:17:32;4.25;;;1.20;;
74624;SDS011;63131;52.298;8.056;2022-12-07T11:23:03;6.63;;;1.63;;
74624;SDS011;63131;52.298;8.056;2022-12-07T11:25:49;6.32;;;1.17;;
74624;SDS011;63131;52.298;8.056;2022-12-07T11:31:09;5.25;;;1.10;;
74624;SDS011;63131;52.298;8.056;2022-12-07T11:34:07;6.40;;;1.35;;
74624;SDS011;63131;52.298;8.056;2022-12-07T11:36:37;7.55;;;1.60;;
74624;SDS011;63131;52.298;8.056;2022-12-07T11:42:06;6.43;;;1.40;;
74624;SDS011;63131;52.298;8.056;2022-12-07T11:47:11;6.68;;;1.23;;
74624;SDS011;63131;52.298;8.056;2022-12-07T11:50:14;5.53;;;1.45;;
74624;SDS011;63131;52.298;8.056;2022-12-07T12:03:54;7.22;;;1.58;;
74624;SDS011;63131;52.298;8.056;2022-12-07T12:06:23;4.63;;;1.25;;
74624;SDS011;63131;52.298;8.056;2022-12-07T12:24:38;6.32;;;1.25;;
74624;SDS011;63131;52.298;8.056;2022-12-07T12:27:08;4.85;;;1.52;;
74624;SDS011;63131;52.298;8.056;2022-12-07T12:29:40;4.65;;;1.52;;
74624;SDS011;63131;52.298;8.056;2022-12-07T12:32:17;5.45;;;1.42;;
74624;SDS011;63131;52.298;8.056;2022-12-07T12:42:57;4.95;;;1.13;;
74624;SDS011;63131;52.298;8.056;2022-12-07T12:45:26;4.88;;;1.20;;
74624;SDS011;63131;52.298;8.056;2022-12-07T12:50:24;7.63;;;1.52;;
74624;SDS011;63131;52.298;8.056;2022-12-07T12:52:58;4.03;;;1.30;;
74624;SDS011;63131;52.298;8.056;2022-12-07T13:00:48;7.35;;;1.60;;
74624;SDS011;63131;52.298;8.056;2022-12-07T13:03:52;3.47;;;1.02;;
74624;SDS011;63131;52.298;8.056;2022-12-07T13:08:50;3.90;;;1.30;;
74624;SDS011;63131;52.298;8.056;2022-12-07T13:11:17;7.47;;;2.20;;
74624;SDS011;63131;52.298;8.056;2022-12-07T13:13:44;6.03;;;1.55;;
74624;SDS011;63131;52.298;8.056;2022-12-07T13:18:35;9.30;;;2.13;;
74624;SDS011;63131;52.298;8.056;2022-12-07T13:28:52;8.15;;;1.92;;
74624;SDS011;63131;52.298;8.056;2022-12-07T13:34:27;7.43;;;1.40;;
74624;SDS011;63131;52.298;8.056;2022-12-07T13:36:52;7.53;;;1.88;;
74624;SDS011;63131;52.298;8.056;2022-12-07T13:39:19;6.90;;;1.77;;
74624;SDS011;63131;52.298;8.056;2022-12-07T13:41:51;8.65;;;1.60;;
74624;SDS011;63131;52.298;8.056;2022-12-07T13:44:18;5.60;;;1.05;;
74624;SDS011;63131;52.298;8.056;2022-12-07T13:46:46;3.90;;;1.10;;
74624;SDS011;63131;52.298;8.056;2022-12-07T13:49:18;5.70;;;1.42;;
74624;SDS011;63131;52.298;8.056;2022-12-07T13:51:46;6.55;;;1.33;;
74624;SDS011;63131;52.298;8.056;2022-12-07T13:54:12;5.38;;;1.60;;
74624;SDS011;63131;52.298;8.056;2022-12-07T13:56:38;6.70;;;1.48;;
74624;SDS011;63131;52.298;8.056;2022-12-07T13:59:12;6.22;;;1.75;;
74624;SDS011;63131;52.298;8.056;2022-12-07T14:01:39;5.53;;;1.42;;
74624;SDS011;63131;52.298;8.056;2022-12-07T14:04:28;7.78;;;1.52;;
74624;SDS011;63131;52.298;8.056;2022-12-07T14:06:54;4.20;;;1.13;;
74624;SDS011;63131;52.298;8.056;2022-12-07T14:09:20;6.35;;;1.42;;
74624;SDS011;63131;52.298;8.056;2022-12-07T14:11:48;5.88;;;1.23;;
74624;SDS011;63131;52.298;8.056;2022-12-07T14:14:19;7.80;;;1.77;;
74624;SDS011;63131;52.298;8.056;2022-12-07T14:19:47;21.23;;;1.92;;
74624;SDS011;63131;52.298;8.056;2022-12-07T14:27:37;9.15;;;2.53;;
74624;SDS011;63131;52.298;8.056;2022-12-07T14:30:03;8.60;;;2.13;;
74624;SDS011;63131;52.298;8.056;2022-12-07T14:32:29;9.90;;;2.05;;
74624;SDS011;63131;52.298;8.056;2022-12-07T14:37:37;7.72;;;1.90;;
74624;SDS011;63131;52.298;8.056;2022-12-07T14:40:04;6.88;;;1.58;;
74624;SDS011;63131;52.298;8.056;2022-12-07T14:42:30;3.35;;;0.90;;
74624;SDS011;63131;52.298;8.056;2022-12-07T14:44:56;3.78;;;1.30;;
74624;SDS011;63131;52.298;8.056;2022-12-07T14:49:48;1.60;;;0.63;;
74624;SDS011;63131;52.298;8.056;2022-12-07T14:52:21;5.57;;;0.88;;
74624;SDS011;63131;52.298;8.056;2022-12-07T14:54:48;5.45;;;1.10;;
74624;SDS011;63131;52.298;8.056;2022-12-07T14:57:14;2.08;;;0.80;;
74624;SDS011;63131;52.298;8.056;2022-12-07T14:59:39;1.92;;;0.75;;
74624;SDS011;63131;52.298;8.056;2022-12-07T15:02:05;5.30;;;1.20;;
74624;SDS011;63131;52.298;8.056;2022-12-07T15:04:31;3.58;;;1.17;;
74624;SDS011;63131;52.298;8.056;2022-12-07T15:06:57;3.75;;;1.00;;
74624;SDS011;63131;52.298;8.056;2022-12-07T15:09:23;5.18;;;1.63;;
74624;SDS011;63131;52.298;8.056;2022-12-07T15:11:49;3.80;;;1.20;;
74624;SDS011;63131;52.298;8.056;2022-12-07T15:14:14;3.55;;;1.23;;
74624;SDS011;63131;52.298;8.056;2022-12-07T15:16:40;5.82;;;1.60;;
74624;SDS011;63131;52.298;8.056;2022-12-07T15:19:17;5.50;;;1.70;;
74624;SDS011;63131;52.298;8.056;2022-12-07T15:21:44;5.22;;;1.25;;
74624;SDS011;63131;52.298;8.056;2022-12-07T15:24:10;2.30;;;1.10;;
74624;SDS011;63131;52.298;8.056;2022-12-07T15:26:36;4.78;;;1.60;;
74624;SDS011;63131;52.298;8.056;2022-12-07T15:29:01;5.13;;;1.77;;
74624;SDS011;63131;52.298;8.056;2022-12-07T15:31:27;6.85;;;1.83;;
74624;SDS011;63131;52.298;8.056;2022-12-07T15:33:52;8.45;;;2.28;;
74624;SDS011;63131;52.298;8.056;2022-12-07T15:36:19;6.78;;;2.30;;
74624;SDS011;63131;52.298;8.056;2022-12-07T15:38:46;4.38;;;1.30;;
74624;SDS011;63131;52.298;8.056;2022-12-07T15:41:11;4.13;;;1.40;;
74624;SDS011;63131;52.298;8.056;2022-12-07T15:43:37;6.53;;;1.77;;
74624;SDS011;63131;52.298;8.056;2022-12-07T15:46:21;7.13;;;2.00;;
74624;SDS011;63131;52.298;8.056;2022-12-07T15:48:46;6.93;;;2.17;;
74624;SDS011;63131;52.298;8.056;2022-12-07T15:51:12;8.43;;;2.85;;
74624;SDS011;63131;52.298;8.056;2022-12-07T15:53:37;7.38;;;2.53;;
74624;SDS011;63131;52.298;8.056;2022-12-07T15:56:06;7.28;;;1.90;;
74624;SDS011;63131;52.298;8.056;2022-12-07T15:58:32;6.75;;;2.05;;
74624;SDS011;63131;52.298;8.056;2022-12-07T16:00:58;6.10;;;2.08;;
74624;SDS011;63131;52.298;8.056;2022-12-07T16:03:23;9.75;;;2.58;;
74624;SDS011;63131;52.298;8.056;2022-12-07T16:05:49;7.43;;;2.25;;
74624;SDS011;63131;52.298;8.056;2022-12-07T16:08:15;6.43;;;2.35;;
74624;SDS011;63131;52.298;8.056;2022-12-07T16:10:41;5.22;;;2.20;;
74624;SDS011;63131;52.298;8.056;2022-12-07T16:13:08;8.90;;;3.10;;
74624;SDS011;63131;52.298;8.056;2022-12-07T16:15:37;7.32;;;2.78;;
74624;SDS011;63131;52.298;8.056;2022-12-07T16:18:03;7.63;;;2.45;;
74624;SDS011;63131;52.298;8.056;2022-12-07T16:22:55;8.27;;;2.97;;
74624;SDS011;63131;52.298;8.056;2022-12-07T16:25:20;10.50;;;2.90;;
74624;SDS011;63131;52.298;8.056;2022-12-07T16:27:46;8.80;;;2.20;;
74624;SDS011;63131;52.298;8.056;2022-12-07T16:30:11;9.02;;;3.20;;
74624;SDS011;63131;52.298;8.056;2022-12-07T16:32:37;11.05;;;3.70;;
74624;SDS011;63131;52.298;8.056;2022-12-07T16:35:02;8.50;;;2.55;;
74624;SDS011;63131;52.298;8.056;2022-12-07T16:37:31;8.43;;;2.67;;
74624;SDS011;63131;52.298;8.056;2022-12-07T16:39:56;12.02;;;3.63;;
74624;SDS011;63131;52.298;8.056;2022-12-07T16:42:22;9.20;;;3.78;;
74624;SDS011;63131;52.298;8.056;2022-12-07T16:44:47;9.80;;;3.70;;
74624;SDS011;63131;52.298;8.056;2022-12-07T16:47:12;11.07;;;4.47;;
74624;SDS011;63131;52.298;8.056;2022-12-07T16:49:38;13.32;;;4.22;;
74624;SDS011;63131;52.298;8.056;2022-12-07T16:52:04;11.15;;;4.00;;
74624;SDS011;63131;52.298;8.056;2022-12-07T16:54:29;12.23;;;4.72;;
74624;SDS011;63131;52.298;8.056;2022-12-07T16:56:57;11.23;;;3.90;;
74624;SDS011;63131;52.298;8.056;2022-12-07T16:59:23;10.13;;;4.40;;
74624;SDS011;63131;52.298;8.056;2022-12-07T17:01:48;9.45;;;3.22;;
74624;SDS011;63131;52.298;8.056;2022-12-07T17:04:14;11.15;;;3.80;;
74624;SDS011;63131;52.298;8.056;2022-12-07T17:06:39;11.73;;;4.05;;
74624;SDS011;63131;52.298;8.056;2022-12-07T17:09:04;13.00;;;4.75;;
74624;SDS011;63131;52.298;8.056;2022-12-07T17:11:34;10.70;;;3.88;;
74624;SDS011;63131;52.298;8.056;2022-12-07T17:14:00;7.68;;;2.70;;
74624;SDS011;63131;52.298;8.056;2022-12-07T17:16:45;8.13;;;3.00;;
74624;SDS011;63131;52.298;8.056;2022-12-07T17:19:12;10.02;;;3.42;;
74624;SDS011;63131;52.298;8.056;2022-12-07T17:21:38;11.07;;;3.45;;